Goodland, Missouri
Current Conditions -  °F | °C
As of 7:15 AM on Thursday 27 Nov 2014 (Local Time) from KFAM Reporting Station
Overcast Overcast  
Wind Chill: 21°   Ceiling: 1000
Heat Index: 30°   Visibility: 7mi
Dew Point: 27°   Wind: 10mph
Humidity: 86%   Direction: 330°NNW
Pressure: 30.42"   Gusts: NA
Location:  37.6719°N, 90.8569°W
Report Text: KFAM 271315Z AUTO 33009KT 7SM OVC010 M01/M03 A3042 RMK AO1
Loading
Personal Weather Stations






























Interactive Weather Map New forecast layout! Learn more

10-Day Weather Forecast

Advertisements
Track Severe Weather on mobile